Archival Weather

Vermilion Rgnl

Danville, Illinois (KDNV)

Report from: Tuesday, March 26, 2024 4:15 AM CDT
Current time: Sunday, July 14, 2024 5:21 AM CDT

Current weather – Weather history – Daily summaries
Weather forecast

Temperature12.1°C (53.8°F)
Dew point9.6°C (49.3°F)
Winds 24 kts (12.3 m/s, 27.6 mph) South (170°)
Wind gusts 35 kts (18 m/s, 40.3 mph)
Visibility10 mi. (16.1 km)
Clouds Ceiling: Overcast 1,500 ft. (457 m)
Altimeter29.47 in.Hg (998 mB)
Relative humidity85 %
Density altitude346 ft. (105 m)
Remarks Fully automated report
Automated weather observing station with precipitation discriminator
Flight conditions Marginal Visual Meteorological Conditions
Raw dataKDNV 260915Z AUTO 17024G35KT 10SM OVC015 12/10 A2947 RMK AO2 T01210096
An error has occurred. This application may no longer respond until reloaded. Reload 🗙